createdAt,value
2023-01-04T00:01:43.261Z,101248.50
2023-01-04T00:04:30.909Z,101275.19
2023-01-04T00:07:18.648Z,101259.09
2023-01-04T00:10:06.577Z,101270.19
2023-01-04T00:12:54.665Z,101235.31
2023-01-04T00:15:42.376Z,101267.44
2023-01-04T00:18:31.137Z,101242.72
2023-01-04T00:21:27.138Z,101262.38
2023-01-04T00:24:15.617Z,101279.28
2023-01-04T00:27:03.191Z,101275.16
2023-01-04T00:29:50.864Z,101280.34
2023-01-04T00:32:38.615Z,101286.63
2023-01-04T00:35:44.679Z,101274.34
2023-01-04T00:38:34.286Z,101271.94
2023-01-04T00:41:56.787Z,101283.66
2023-01-04T00:44:30.696Z,101290.19
2023-01-04T00:47:18.578Z,101291.88
2023-01-04T00:50:06.661Z,101302.22
2023-01-04T00:52:54.410Z,101299.22
2023-01-04T00:55:42.690Z,101254.25
2023-01-04T00:58:30.355Z,101268.72
2023-01-04T01:01:18.194Z,101295.44
2023-01-04T01:04:05.985Z,101281.50
2023-01-04T01:06:53.803Z,101311.50
2023-01-04T01:09:41.464Z,101308.25
2023-01-04T01:12:29.975Z,101317.50
2023-01-04T01:15:17.758Z,101319.16
2023-01-04T01:18:05.425Z,101306.88
2023-01-04T01:20:53.093Z,101280.44
2023-01-04T01:23:41.692Z,101313.13
2023-01-04T01:26:29.424Z,101288.59
2023-01-04T01:29:17.524Z,101301.94
2023-01-04T01:32:05.497Z,101313.94
2023-01-04T01:34:53.209Z,101309.31
2023-01-04T01:37:40.824Z,101286.97
2023-01-04T01:40:29.462Z,101303.59
2023-01-04T01:43:22.800Z,101297.88
2023-01-04T01:46:11.412Z,101290.25
2023-01-04T01:49:27.672Z,101288.88
2023-01-04T01:52:21.868Z,101294.06
2023-01-04T01:55:12.777Z,101285.06
2023-01-04T01:58:01.300Z,101296.78
2023-01-04T02:00:49.241Z,101283.16
2023-01-04T02:03:40.439Z,101297.31
2023-01-04T02:06:32.903Z,101245.28
2023-01-04T02:09:21.744Z,101239.00
2023-01-04T02:12:13.728Z,101274.97
2023-01-04T02:15:01.525Z,101304.91
2023-01-04T02:18:15.402Z,101298.41
2023-01-04T02:21:13.064Z,101294.31
2023-01-04T02:24:12.763Z,101304.94
2023-01-04T02:27:12.630Z,101302.22
2023-01-04T02:30:06.255Z,101306.84
2023-01-04T02:33:07.441Z,101270.59
2023-01-04T02:36:14.485Z,101298.69
2023-01-04T02:39:14.243Z,101307.13
2023-01-04T02:42:04.949Z,101294.84
2023-01-04T02:45:04.747Z,101302.19
2023-01-04T02:48:10.958Z,101262.97
2023-01-04T02:51:00.728Z,101275.47
2023-01-04T02:53:48.426Z,101297.84
2023-01-04T02:57:04.577Z,101288.28
2023-01-04T03:00:29.937Z,101284.22
2023-01-04T03:03:46.508Z,101272.81
2023-01-04T03:06:44.679Z,101282.59
2023-01-04T03:09:35.917Z,101285.31
2023-01-04T03:12:36.514Z,101294.31
2023-01-04T03:15:28.451Z,101280.69
2023-01-04T03:18:23.086Z,101284.22
2023-01-04T03:21:13.634Z,101257.78
2023-01-04T03:24:22.572Z,101264.06
2023-01-04T03:27:28.992Z,101238.44
2023-01-04T03:30:37.013Z,101285.59
2023-01-04T03:33:43.058Z,101253.50
2023-01-04T03:36:46.707Z,101282.91
2023-01-04T03:40:34.660Z,101282.31
2023-01-04T03:43:55.990Z,101259.38
2023-01-04T03:47:12.496Z,101285.53
2023-01-04T03:50:13.793Z,101282.53
2023-01-04T03:53:02.997Z,101264.22
2023-01-04T03:55:53.007Z,101277.41
2023-01-04T03:58:40.973Z,101289.88
2023-01-04T04:01:29.429Z,101291.25
2023-01-04T04:04:36.133Z,101302.34
2023-01-04T04:07:42.234Z,101300.75
2023-01-04T04:10:29.920Z,101289.16
2023-01-04T04:13:17.615Z,101286.16
2023-01-04T04:16:05.601Z,101301.16
2023-01-04T04:18:53.628Z,101313.16
2023-01-04T04:21:41.736Z,101306.50
2023-01-04T04:24:29.556Z,101297.91
2023-01-04T04:27:17.256Z,101314.81
2023-01-04T04:30:05.618Z,101313.38
2023-01-04T04:32:53.320Z,101297.63
2023-01-04T04:35:41.284Z,101282.34
2023-01-04T04:38:28.991Z,101326.28
2023-01-04T04:41:35.337Z,101315.44
2023-01-04T04:44:23.015Z,101307.91
2023-01-04T04:47:10.689Z,101323.16
2023-01-04T04:49:58.349Z,101310.13
2023-01-04T04:52:49.787Z,101327.94
2023-01-04T04:55:40.402Z,101320.66
2023-01-04T04:58:28.151Z,101327.41
2023-01-04T05:01:16.550Z,101330.38
2023-01-04T05:04:14.379Z,101343.03
2023-01-04T05:07:02.827Z,101349.13
2023-01-04T05:09:52.712Z,101356.03
2023-01-04T05:12:59.831Z,101350.00
2023-01-04T05:15:54.101Z,101330.69
2023-01-04T05:18:41.701Z,101366.59
2023-01-04T05:21:29.686Z,101361.06
2023-01-04T05:24:17.406Z,101344.66
2023-01-04T05:27:06.470Z,101357.06
2023-01-04T05:30:12.597Z,101363.13
2023-01-04T05:33:00.846Z,101360.84
2023-01-04T05:35:48.978Z,101360.97
2023-01-04T05:38:36.822Z,101337.31
2023-01-04T05:41:42.907Z,101355.09
2023-01-04T05:44:30.625Z,101365.59
2023-01-04T05:47:18.512Z,101375.09
2023-01-04T05:50:06.925Z,101375.31
2023-01-04T05:52:54.644Z,101375.53
2023-01-04T05:55:42.483Z,101346.56
2023-01-04T05:58:33.314Z,101384.88
2023-01-04T06:01:21.124Z,101353.22
2023-01-04T06:04:09.012Z,101375.31
2023-01-04T06:06:56.784Z,101371.78
2023-01-04T06:14:35.477Z,101306.63
2023-01-04T06:17:24.190Z,101357.44
2023-01-04T06:20:12.258Z,101397.38
2023-01-04T06:23:02.912Z,101364.97
2023-01-04T06:25:50.498Z,101380.34
2023-01-04T06:28:40.990Z,101400.00
2023-01-04T06:31:29.045Z,101411.72
2023-01-04T06:34:16.755Z,101414.78
2023-01-04T06:37:06.030Z,101410.09
2023-01-04T06:39:53.876Z,101395.88
2023-01-04T06:42:47.003Z,101418.69
2023-01-04T06:45:34.561Z,101433.13
2023-01-04T06:48:22.251Z,101403.69
2023-01-04T06:51:10.120Z,101446.53
2023-01-04T06:53:57.763Z,101400.78
2023-01-04T06:56:45.531Z,101416.13
2023-01-04T06:59:33.112Z,101440.91
2023-01-04T07:02:21.781Z,101445.56
2023-01-04T07:05:09.753Z,101433.81
2023-01-04T07:08:07.405Z,101420.91
2023-01-04T07:10:55.818Z,101393.94
2023-01-04T07:13:43.394Z,101441.94
2023-01-04T07:16:30.996Z,101442.38
2023-01-04T07:19:18.912Z,101452.63
2023-01-04T07:22:06.441Z,101437.38
2023-01-04T07:24:54.055Z,101454.13
2023-01-04T07:27:41.566Z,101434.66
2023-01-04T07:30:29.359Z,101453.50
2023-01-04T07:33:17.416Z,101456.78
2023-01-04T07:36:06.712Z,101443.84
2023-01-04T07:38:54.457Z,101456.25
2023-01-04T07:41:43.033Z,101448.75
2023-01-04T07:44:31.693Z,101461.16
2023-01-04T07:47:19.508Z,101463.69
2023-01-04T07:50:07.687Z,101445.66
2023-01-04T07:52:55.251Z,101425.28
2023-01-04T07:55:42.812Z,101450.09
2023-01-04T07:58:34.599Z,101468.63
2023-01-04T08:01:22.301Z,101477.88
2023-01-04T08:04:12.340Z,101471.25
2023-01-04T08:07:02.170Z,101451.22
2023-01-04T08:09:49.750Z,101480.22
2023-01-04T08:12:41.369Z,101469.88
2023-01-04T08:15:34.634Z,101465.97
2023-01-04T08:18:22.213Z,101468.81
2023-01-04T08:21:09.924Z,101470.50
2023-01-04T08:23:57.676Z,101477.00
2023-01-04T08:26:48.736Z,101467.41
2023-01-04T08:32:40.999Z,101457.97
2023-01-04T08:35:28.566Z,101475.50
2023-01-04T08:38:57.554Z,101417.28
2023-01-04T08:41:55.933Z,101468.78
2023-01-04T08:44:32.111Z,101472.03
2023-01-04T08:47:19.698Z,101477.38
2023-01-04T08:50:11.154Z,101469.22
2023-01-04T08:52:58.807Z,101448.22
2023-01-04T08:55:51.597Z,101468.88
2023-01-04T08:58:39.391Z,101444.66
2023-01-04T09:01:27.191Z,101438.34
2023-01-04T09:04:14.905Z,101478.38
2023-01-04T09:07:02.534Z,101464.84
2023-01-04T09:09:50.148Z,101443.53
2023-01-04T09:12:37.903Z,101460.34
2023-01-04T09:15:25.730Z,101455.84
2023-01-04T09:18:31.612Z,101440.50
2023-01-04T09:21:22.291Z,101459.22
2023-01-04T09:24:10.089Z,101446.28
2023-01-04T09:26:57.682Z,101456.78
2023-01-04T09:29:45.362Z,101458.19
2023-01-04T09:32:33.995Z,101456.03
2023-01-04T09:35:21.705Z,101454.81
2023-01-04T09:38:09.285Z,101458.47
2023-01-04T09:41:25.877Z,101461.47
2023-01-04T09:44:54.452Z,101457.97
2023-01-04T09:47:40.014Z,101468.66
2023-01-04T09:50:53.157Z,101454.53
2023-01-04T09:53:49.947Z,101447.69
2023-01-04T09:56:42.334Z,101437.31
2023-01-04T09:59:32.475Z,101446.03
2023-01-04T10:02:30.599Z,101459.34
2023-01-04T10:05:21.962Z,101457.22
2023-01-04T10:08:18.517Z,101458.38
2023-01-04T10:11:43.472Z,101458.16
2023-01-04T10:15:04.677Z,101464.72
2023-01-04T10:21:40.716Z,101462.56
2023-01-04T10:25:00.338Z,101457.03
2023-01-04T10:28:03.591Z,101464.19
2023-01-04T10:31:40.149Z,101460.16
2023-01-04T10:34:43.686Z,101434.38
2023-01-04T10:37:35.923Z,101427.06
2023-01-04T10:40:24.022Z,101465.34
2023-01-04T10:44:11.428Z,101459.16
2023-01-04T10:46:52.183Z,101462.81
2023-01-04T10:49:49.535Z,101450.13
2023-01-04T10:52:37.098Z,101462.84
2023-01-04T10:56:24.491Z,101458.97
2023-01-04T10:58:59.330Z,101453.25
2023-01-04T11:01:59.211Z,101460.59
2023-01-04T11:04:49.753Z,101455.59
2023-01-04T11:07:41.854Z,101461.22
2023-01-04T11:10:39.140Z,101464.34
2023-01-04T11:13:26.957Z,101455.09
2023-01-04T11:16:14.650Z,101460.09
2023-01-04T11:19:04.504Z,101450.88
2023-01-04T11:22:10.579Z,101461.59
2023-01-04T11:28:23.265Z,101392.53
2023-01-04T11:31:17.841Z,101470.38
2023-01-04T11:34:06.947Z,101456.69
2023-01-04T11:36:54.627Z,101459.34
2023-01-04T11:39:45.230Z,101439.56
2023-01-04T11:43:11.785Z,101467.50
2023-01-04T11:46:19.971Z,101475.28
2023-01-04T11:49:42.422Z,101474.81
2023-01-04T11:52:35.883Z,101482.81
2023-01-04T11:56:13.554Z,101489.63
2023-01-04T12:03:40.334Z,101458.88
2023-01-04T12:06:48.212Z,101479.16
2023-01-04T12:09:35.742Z,101483.13
2023-01-04T12:12:28.953Z,101474.78
2023-01-04T12:15:32.554Z,101487.19
2023-01-04T12:18:26.839Z,101473.50
2023-01-04T12:21:26.498Z,101475.59
2023-01-04T12:24:21.634Z,101482.66
2023-01-04T12:27:15.069Z,101478.03
2023-01-04T12:30:06.175Z,101475.19
2023-01-04T12:32:53.961Z,101484.06
2023-01-04T12:35:59.749Z,101483.75
2023-01-04T12:38:53.135Z,101486.50
2023-01-04T12:42:01.792Z,101478.66
2023-01-04T12:44:52.342Z,101488.41
2023-01-04T12:47:58.840Z,101483.84
2023-01-04T12:51:34.257Z,101489.94
2023-01-04T12:54:32.329Z,101443.81
2023-01-04T12:57:23.484Z,101481.91
2023-01-04T13:00:13.317Z,101486.94
2023-01-04T13:03:18.791Z,101455.84
2023-01-04T13:06:09.212Z,101486.72
2023-01-04T13:08:56.848Z,101484.69
2023-01-04T13:12:36.697Z,101489.34
2023-01-04T13:15:45.930Z,101486.28
2023-01-04T13:18:35.268Z,101488.50
2023-01-04T13:21:33.965Z,101490.13
2023-01-04T13:24:28.449Z,101452.84
2023-01-04T13:27:19.847Z,101413.97
2023-01-04T13:30:27.522Z,101476.50
2023-01-04T13:33:27.793Z,101486.16
2023-01-04T13:36:16.595Z,101465.97
2023-01-04T13:39:08.097Z,101476.63
2023-01-04T13:41:59.617Z,101481.13
2023-01-04T13:45:21.183Z,101485.56
2023-01-04T13:48:13.026Z,101478.13
2023-01-04T13:51:04.282Z,101458.09
2023-01-04T13:53:57.029Z,101477.09
2023-01-04T13:56:49.696Z,101468.91
2023-01-04T13:59:41.153Z,101478.19
2023-01-04T14:02:29.791Z,101491.81
2023-01-04T14:05:18.576Z,101467.53
2023-01-04T14:08:13.240Z,101483.00
2023-01-04T14:11:01.691Z,101497.72
2023-01-04T14:13:49.404Z,101485.88
2023-01-04T14:16:37.135Z,101466.84
2023-01-04T14:19:41.398Z,101500.72
2023-01-04T14:22:33.252Z,101501.84
2023-01-04T14:25:48.684Z,101496.34
2023-01-04T14:28:43.134Z,101486.59
2023-01-04T14:31:37.493Z,101492.41
2023-01-04T14:34:27.621Z,101484.34
2023-01-04T14:37:15.527Z,101490.16
2023-01-04T14:40:15.234Z,101498.88
2023-01-04T14:43:02.971Z,101468.03
2023-01-04T14:45:50.950Z,101491.66
2023-01-04T14:48:38.663Z,101492.78
2023-01-04T14:51:41.218Z,101495.47
2023-01-04T14:54:29.525Z,101493.53
2023-01-04T14:57:18.137Z,101490.78
2023-01-04T15:00:06.033Z,101496.06
2023-01-04T15:02:53.666Z,101500.38
2023-01-04T15:05:43.381Z,101500.88
2023-01-04T15:08:31.148Z,101510.59
2023-01-04T15:11:19.259Z,101486.31
2023-01-04T15:14:06.739Z,101502.50
2023-01-04T15:16:54.543Z,101508.31
2023-01-04T15:19:47.136Z,101510.88
2023-01-04T15:22:34.740Z,101518.22
2023-01-04T15:25:22.196Z,101519.75
2023-01-04T15:28:09.781Z,101512.00
2023-01-04T15:30:57.483Z,101517.50
2023-01-04T15:33:50.787Z,101518.94
2023-01-04T15:36:41.327Z,101515.69
2023-01-04T15:39:30.060Z,101509.38
2023-01-04T15:42:36.253Z,101505.91
2023-01-04T15:45:24.225Z,101503.28
2023-01-04T15:48:12.854Z,101504.59
2023-01-04T15:51:02.592Z,101504.09
2023-01-04T15:53:50.951Z,101510.50
2023-01-04T15:56:38.565Z,101512.88
2023-01-04T15:59:26.351Z,101519.19
2023-01-04T16:02:14.032Z,101510.09
2023-01-04T16:05:01.521Z,101512.38
2023-01-04T16:07:49.254Z,101510.75
2023-01-04T16:10:36.917Z,101516.25
2023-01-04T16:13:24.567Z,101509.44
2023-01-04T16:16:12.153Z,101504.91
2023-01-04T16:19:02.665Z,101505.84
2023-01-04T16:21:53.262Z,101499.75
2023-01-04T16:27:48.270Z,101505.97
2023-01-04T16:30:35.991Z,101514.13
2023-01-04T16:33:23.594Z,101515.56
2023-01-04T16:36:11.635Z,101517.69
2023-01-04T16:38:59.139Z,101516.88
2023-01-04T16:41:46.582Z,101514.25
2023-01-04T16:44:34.277Z,101522.19
2023-01-04T16:47:21.731Z,101519.25
2023-01-04T16:50:10.038Z,101516.19
2023-01-04T16:52:57.516Z,101523.09
2023-01-04T16:55:45.558Z,101521.56
2023-01-04T16:58:33.101Z,101513.91
2023-01-04T17:01:22.588Z,101516.97
2023-01-04T17:04:13.296Z,101523.09
2023-01-04T17:07:00.874Z,101516.28
2023-01-04T17:09:49.577Z,101516.56
2023-01-04T17:12:46.909Z,101519.63
2023-01-04T17:15:45.322Z,101525.13
2023-01-04T17:18:32.888Z,101523.59
2023-01-04T17:21:33.770Z,101524.94
2023-01-04T17:24:24.830Z,101519.75
2023-01-04T17:27:12.608Z,101518.69
2023-01-04T17:30:00.131Z,101524.72
2023-01-04T17:32:47.811Z,101513.72
2023-01-04T17:35:39.129Z,101517.56
2023-01-04T17:38:26.615Z,101511.06
2023-01-04T17:41:20.536Z,101507.59
2023-01-04T17:44:08.252Z,101507.41
2023-01-04T17:46:55.713Z,101504.94
2023-01-04T17:49:43.273Z,101498.94
2023-01-04T17:52:31.693Z,101500.69
2023-01-04T17:55:20.171Z,101499.25
2023-01-04T17:58:10.126Z,101495.78
2023-01-04T18:01:00.486Z,101493.56
2023-01-04T18:03:49.313Z,101493.63
2023-01-04T18:06:37.332Z,101487.53
2023-01-04T18:09:27.924Z,101489.78
2023-01-04T18:12:15.368Z,101496.47
2023-01-04T18:15:06.613Z,101493.53
2023-01-04T18:17:54.034Z,101494.97
2023-01-04T18:20:48.943Z,101490.66
2023-01-04T18:23:36.831Z,101494.72
2023-01-04T18:26:24.272Z,101499.13
2023-01-04T18:29:14.793Z,101496.66
2023-01-04T18:32:02.521Z,101499.03
2023-01-04T18:34:50.009Z,101491.06
2023-01-04T18:37:37.683Z,101488.84
2023-01-04T18:40:25.144Z,101489.41
2023-01-04T18:43:12.543Z,101484.22
2023-01-04T18:46:00.975Z,101480.16
2023-01-04T18:48:59.159Z,101481.78
2023-01-04T18:51:46.545Z,101483.81
2023-01-04T18:54:34.096Z,101488.59
2023-01-04T18:57:21.503Z,101483.72
2023-01-04T19:00:10.598Z,101484.53
2023-01-04T19:02:58.162Z,101479.25
2023-01-04T19:05:45.712Z,101485.84
2023-01-04T19:08:33.199Z,101487.59
2023-01-04T19:11:20.710Z,101485.75
2023-01-04T19:14:08.098Z,101476.78
2023-01-04T19:16:55.604Z,101479.22
2023-01-04T19:19:48.540Z,101472.91
2023-01-04T19:22:36.076Z,101467.50
2023-01-04T19:25:28.243Z,101465.44
2023-01-04T19:28:16.211Z,101463.44
2023-01-04T19:31:08.068Z,101469.22
2023-01-04T19:33:55.644Z,101467.59
2023-01-04T19:36:45.396Z,101465.03
2023-01-04T19:39:32.823Z,101458.44
2023-01-04T19:42:20.281Z,101459.44
2023-01-04T19:45:08.148Z,101453.25
2023-01-04T19:47:55.539Z,101458.72
2023-01-04T19:50:43.279Z,101460.06
2023-01-04T19:53:30.707Z,101452.31
2023-01-04T19:56:23.781Z,101447.94
2023-01-04T19:59:11.222Z,101450.63
2023-01-04T20:01:58.854Z,101437.69
2023-01-04T20:04:46.336Z,101435.84
2023-01-04T20:07:34.312Z,101428.22
2023-01-04T20:10:21.985Z,101431.47
2023-01-04T20:16:20.043Z,101431.53
2023-01-04T20:19:09.736Z,101419.53
2023-01-04T20:22:02.552Z,101420.97
2023-01-04T20:24:49.965Z,101407.13
2023-01-04T20:27:37.460Z,101403.13
2023-01-04T20:30:24.890Z,101410.16
2023-01-04T20:33:14.685Z,101406.88
2023-01-04T20:36:09.444Z,101404.06
2023-01-04T20:39:00.767Z,101396.50
2023-01-04T20:42:06.851Z,101395.19
2023-01-04T20:44:54.296Z,101395.69
2023-01-04T20:47:41.791Z,101394.88
2023-01-04T20:50:29.253Z,101402.31
2023-01-04T20:53:16.730Z,101396.31
2023-01-04T20:56:04.829Z,101398.09
2023-01-04T20:58:52.636Z,101396.69
2023-01-04T21:01:40.306Z,101393.13
2023-01-04T21:04:28.296Z,101394.63
2023-01-04T21:07:15.896Z,101388.31
2023-01-04T21:10:03.545Z,101393.81
2023-01-04T21:12:51.058Z,101378.31
2023-01-04T21:15:38.876Z,101385.91
2023-01-04T21:18:29.292Z,101381.09
2023-01-04T21:21:20.233Z,101382.25
2023-01-04T21:24:07.875Z,101373.34
2023-01-04T21:26:55.285Z,101371.28
2023-01-04T21:29:42.793Z,101365.63
2023-01-04T21:32:32.668Z,101366.84
2023-01-04T21:35:20.043Z,101370.28
2023-01-04T21:38:07.817Z,101377.03
2023-01-04T21:41:13.821Z,101368.28
2023-01-04T21:44:01.613Z,101362.06
2023-01-04T21:46:49.135Z,101362.19
2023-01-04T21:49:36.604Z,101356.97
2023-01-04T21:52:24.130Z,101356.09
2023-01-04T21:55:11.611Z,101350.47
2023-01-04T21:57:59.031Z,101351.88
2023-01-04T22:00:46.398Z,101349.25
2023-01-04T22:03:33.876Z,101349.81
2023-01-04T22:06:23.121Z,101348.03
2023-01-04T22:09:10.633Z,101339.31
2023-01-04T22:11:58.026Z,101336.16
2023-01-04T22:14:45.457Z,101335.38
2023-01-04T22:17:32.906Z,101338.47
2023-01-04T22:20:20.407Z,101334.22
2023-01-04T22:23:07.839Z,101328.75
2023-01-04T22:25:56.576Z,101326.56
2023-01-04T22:28:43.990Z,101327.94
2023-01-04T22:31:31.490Z,101330.97
2023-01-04T22:34:18.913Z,101334.53
2023-01-04T22:37:06.363Z,101323.41
2023-01-04T22:39:53.797Z,101311.44
2023-01-04T22:42:41.829Z,101312.00
2023-01-04T22:45:29.287Z,101304.91
2023-01-04T22:48:16.936Z,101306.31
2023-01-04T22:51:08.528Z,101300.03
2023-01-04T22:53:57.102Z,101291.47
2023-01-04T22:56:44.657Z,101292.03
2023-01-04T22:59:32.019Z,101292.81
2023-01-04T23:02:19.490Z,101291.09
2023-01-04T23:05:07.035Z,101296.75
2023-01-04T23:07:54.665Z,101286.09
2023-01-04T23:10:43.141Z,101279.22
2023-01-04T23:13:30.588Z,101276.91
2023-01-04T23:16:18.419Z,101276.59
2023-01-04T23:19:06.749Z,101268.84
2023-01-04T23:21:54.085Z,101269.94
2023-01-04T23:24:41.516Z,101269.59
2023-01-04T23:27:29.089Z,101265.75
2023-01-04T23:30:16.986Z,101256.19
2023-01-04T23:33:04.476Z,101242.72
2023-01-04T23:35:51.965Z,101245.38
2023-01-04T23:38:42.254Z,101239.66
2023-01-04T23:41:46.842Z,101242.59
2023-01-04T23:44:48.211Z,101243.38
2023-01-04T23:47:35.680Z,101226.81
2023-01-04T23:50:25.260Z,101232.06
2023-01-04T23:53:12.778Z,101226.22
2023-01-04T23:56:00.184Z,101229.19
2023-01-04T23:58:47.618Z,101227.00
